createdAt,value
2023-03-17T00:00:01.663Z,1.79
2023-03-17T00:01:01.701Z,1.77
2023-03-17T00:02:01.668Z,1.78
2023-03-17T00:03:01.651Z,1.78
2023-03-17T00:04:01.694Z,1.75
2023-03-17T00:05:01.653Z,1.77
2023-03-17T00:06:01.651Z,1.78
2023-03-17T00:07:01.656Z,1.77
2023-03-17T00:08:01.658Z,1.76
2023-03-17T00:09:01.664Z,1.74
2023-03-17T00:10:01.638Z,1.78
2023-03-17T00:11:01.630Z,1.76
2023-03-17T00:12:01.632Z,1.76
2023-03-17T00:13:01.634Z,1.74
2023-03-17T00:14:01.642Z,1.76
2023-03-17T00:15:01.644Z,1.77
2023-03-17T00:16:01.724Z,1.74
2023-03-17T00:17:01.644Z,1.76
2023-03-17T00:18:01.659Z,1.75
2023-03-17T00:19:02.363Z,1.75
2023-03-17T00:20:01.637Z,1.70
2023-03-17T00:37:01.862Z,1.72
2023-03-17T00:38:01.858Z,1.70
2023-03-17T00:39:01.877Z,1.69
2023-03-17T00:41:01.892Z,1.69
2023-03-17T00:42:01.910Z,1.69
2023-03-17T06:26:08.477Z,0.57
2023-03-17T06:35:07.983Z,0.56
2023-03-17T06:36:08.122Z,0.60
2023-03-17T06:37:07.985Z,0.65
2023-03-17T06:38:07.984Z,0.68
2023-03-17T06:39:07.991Z,0.68
2023-03-17T06:40:07.993Z,0.69
2023-03-17T06:41:08.000Z,0.70
2023-03-17T06:42:08.495Z,0.73
2023-03-17T06:43:08.087Z,0.71
2023-03-17T06:44:08.015Z,0.72
2023-03-17T06:45:08.871Z,0.75
2023-03-17T06:46:08.135Z,0.74
2023-03-17T06:47:08.027Z,0.76
2023-03-17T06:48:08.051Z,0.75
2023-03-17T06:49:08.098Z,0.76
2023-03-17T06:50:08.155Z,0.77
2023-03-17T06:51:08.217Z,0.77
2023-03-17T06:52:08.268Z,0.78
2023-03-17T06:53:08.328Z,0.78
2023-03-17T06:54:08.401Z,0.80
2023-03-17T06:55:08.425Z,0.80
2023-03-17T06:56:20.010Z,0.81
2023-03-17T06:57:09.474Z,0.81
2023-03-17T06:58:08.520Z,0.81
2023-03-17T06:59:08.534Z,0.81
2023-03-17T07:00:08.420Z,0.82
2023-03-17T07:01:08.432Z,0.83
2023-03-17T07:02:08.441Z,0.84
2023-03-17T07:03:08.404Z,0.85
2023-03-17T07:04:08.496Z,0.86
2023-03-17T07:05:08.404Z,0.86
2023-03-17T07:06:08.437Z,0.86
2023-03-17T07:07:08.508Z,0.87
2023-03-17T07:08:08.569Z,0.87
2023-03-17T07:09:08.654Z,0.87
2023-03-17T07:10:08.689Z,0.89
2023-03-17T07:11:08.718Z,0.89
2023-03-17T07:12:08.778Z,0.90
2023-03-17T07:13:08.821Z,0.87
2023-03-17T07:14:08.892Z,0.90
2023-03-17T07:15:08.918Z,0.89
2023-03-17T07:16:09.492Z,0.89
2023-03-17T07:17:08.999Z,0.89
2023-03-17T07:18:09.032Z,0.90
2023-03-17T07:19:09.102Z,0.91
2023-03-17T07:20:09.132Z,0.91
2023-03-17T07:21:09.180Z,0.91
2023-03-17T07:22:09.248Z,0.92
2023-03-17T07:23:09.270Z,0.90
2023-03-17T07:24:09.966Z,0.92
2023-03-17T07:25:09.582Z,0.95
2023-03-17T07:26:09.445Z,1.01
2023-03-17T07:27:09.545Z,1.08
2023-03-17T07:28:09.523Z,1.13
2023-03-17T07:29:09.544Z,1.17
2023-03-17T07:30:09.599Z,1.25
2023-03-17T07:31:09.644Z,1.36
2023-03-17T07:32:09.564Z,1.38
2023-03-17T07:33:09.790Z,1.45
2023-03-17T07:34:09.720Z,1.52
2023-03-17T07:35:09.722Z,1.61
2023-03-17T07:36:09.747Z,1.73
2023-03-17T07:37:09.674Z,1.74
2023-03-17T07:38:09.672Z,1.84
2023-03-17T07:39:11.841Z,1.98
2023-03-17T07:40:09.692Z,2.05
2023-03-17T07:41:09.757Z,2.12
2023-03-17T07:42:09.846Z,4.32
2023-03-17T07:43:09.805Z,4.26
2023-03-17T07:44:09.865Z,3.94
2023-03-17T07:45:09.888Z,3.75
2023-03-17T07:46:10.041Z,3.68
2023-03-17T07:47:10.011Z,3.68
2023-03-17T07:48:09.983Z,3.60
2023-03-17T07:49:10.083Z,3.65
2023-03-17T07:50:10.113Z,3.72
2023-03-17T07:51:10.061Z,3.83
2023-03-17T07:52:10.182Z,3.87
2023-03-17T07:53:10.132Z,4.08
2023-03-17T07:54:10.136Z,4.22
2023-03-17T07:55:10.984Z,4.40
2023-03-17T07:56:10.178Z,4.46
2023-03-17T07:57:10.192Z,4.62
2023-03-17T07:58:10.198Z,4.77
2023-03-17T07:59:10.218Z,4.87
2023-03-17T08:00:10.336Z,5.08
2023-03-17T08:01:10.231Z,5.24
2023-03-17T08:02:10.255Z,5.26
2023-03-17T08:03:11.175Z,5.46
2023-03-17T08:04:10.317Z,5.53
2023-03-17T08:05:10.554Z,5.74
2023-03-17T08:06:10.970Z,5.82
2023-03-17T08:07:10.246Z,5.95
2023-03-17T08:08:10.233Z,6.12
2023-03-17T08:09:10.965Z,6.23
2023-03-17T08:10:10.235Z,6.36
2023-03-17T08:11:10.255Z,7.45
2023-03-17T08:12:10.217Z,13.19
2023-03-17T08:13:10.265Z,10.45
2023-03-17T08:14:10.198Z,9.97
2023-03-17T08:15:10.186Z,9.35
2023-03-17T08:16:10.252Z,9.19
2023-03-17T08:17:10.172Z,9.36
2023-03-17T08:18:10.203Z,9.36
2023-03-17T08:19:10.162Z,9.41
2023-03-17T08:20:10.154Z,9.43
2023-03-17T08:21:10.152Z,9.19
2023-03-17T08:22:10.126Z,9.32
2023-03-17T08:23:10.116Z,9.75
2023-03-17T08:24:11.953Z,9.61
2023-03-17T08:25:10.120Z,9.98
2023-03-17T08:26:10.075Z,12.38
2023-03-17T08:27:10.086Z,12.12
2023-03-17T08:28:10.147Z,11.91
2023-03-17T08:29:10.076Z,11.44
2023-03-17T08:30:10.128Z,11.19
2023-03-17T08:31:12.295Z,11.13
2023-03-17T08:32:10.122Z,11.54
2023-03-17T08:33:10.173Z,11.40
2023-03-17T08:34:10.090Z,11.55
2023-03-17T08:35:10.133Z,11.57
2023-03-17T08:36:10.090Z,11.66
2023-03-17T08:37:11.456Z,11.79
2023-03-17T08:38:10.069Z,11.75
2023-03-17T08:39:10.058Z,11.97
2023-03-17T08:40:10.074Z,12.10
2023-03-17T08:41:10.076Z,12.30
2023-03-17T08:42:10.066Z,12.34
2023-03-17T08:43:10.049Z,12.22
2023-03-17T08:44:10.047Z,12.32
2023-03-17T08:45:10.987Z,12.41
2023-03-17T08:46:10.104Z,12.12
2023-03-17T08:47:10.035Z,12.69
2023-03-17T08:48:10.089Z,12.55
2023-03-17T08:49:10.130Z,12.89
2023-03-17T08:50:10.052Z,12.65
2023-03-17T08:51:10.005Z,12.86
2023-03-17T08:52:10.002Z,12.62
2023-03-17T08:53:10.023Z,12.97
2023-03-17T08:54:10.003Z,13.18
2023-03-17T08:55:10.010Z,13.42
2023-03-17T08:56:10.007Z,13.29
2023-03-17T08:57:10.004Z,13.32
2023-03-17T08:58:10.056Z,13.62
2023-03-17T08:59:09.982Z,13.07
2023-03-17T09:00:09.980Z,13.05
2023-03-17T09:01:10.030Z,13.83
2023-03-17T09:02:10.044Z,13.82
2023-03-17T09:03:09.976Z,13.99
2023-03-17T09:04:09.974Z,14.15
2023-03-17T09:05:09.978Z,14.32
2023-03-17T09:06:09.981Z,14.46
2023-03-17T09:07:09.968Z,14.30
2023-03-17T09:08:10.999Z,14.37
2023-03-17T09:09:10.950Z,14.40
2023-03-17T09:10:09.916Z,14.46
2023-03-17T09:11:09.859Z,14.43
2023-03-17T09:12:09.826Z,14.70
2023-03-17T09:46:08.720Z,13.30
2023-03-17T09:48:08.506Z,13.37
2023-03-17T09:49:08.461Z,13.75
2023-03-17T09:50:08.404Z,14.06
2023-03-17T09:51:08.348Z,13.59
2023-03-17T09:52:08.299Z,13.91
2023-03-17T09:53:08.240Z,14.34
2023-03-17T09:54:08.208Z,14.52
2023-03-17T09:55:08.234Z,14.81
2023-03-17T09:56:08.235Z,15.45
2023-03-17T09:57:08.256Z,15.42
2023-03-17T09:58:08.265Z,14.85
2023-03-17T09:59:08.272Z,15.68
2023-03-17T10:00:08.312Z,15.78
2023-03-17T10:01:08.308Z,15.78
2023-03-17T10:03:08.330Z,16.40
2023-03-17T10:04:08.445Z,17.06
2023-03-17T10:05:08.409Z,17.45
2023-03-17T10:06:08.366Z,16.74
2023-03-17T10:07:08.381Z,18.30
2023-03-17T10:08:22.674Z,17.56
2023-03-17T10:10:08.275Z,17.78
2023-03-17T10:11:08.230Z,17.99
2023-03-17T10:12:08.177Z,18.71
2023-03-17T10:13:08.128Z,20.49
2023-03-17T10:14:08.077Z,19.60
2023-03-17T10:15:08.024Z,19.57
2023-03-17T10:16:08.131Z,20.51
2023-03-17T10:17:07.989Z,20.56
2023-03-17T10:18:08.007Z,21.52
2023-03-17T10:19:08.016Z,21.47
2023-03-17T10:20:08.036Z,20.83
2023-03-17T10:21:08.030Z,20.03
2023-03-17T10:22:08.002Z,20.64
2023-03-17T10:23:08.011Z,20.02
2023-03-17T10:24:08.065Z,19.39
2023-03-17T10:25:08.001Z,18.81
2023-03-17T10:26:07.952Z,19.09
2023-03-17T10:43:08.569Z,18.27
2023-03-17T11:13:08.055Z,18.94
2023-03-17T11:24:08.537Z,18.08
2023-03-17T11:30:08.048Z,16.63
2023-03-17T12:32:05.990Z,9.70
2023-03-17T12:33:06.007Z,9.86
2023-03-17T12:34:05.932Z,9.72
2023-03-17T12:35:05.895Z,9.38
2023-03-17T12:36:05.970Z,9.65
2023-03-17T12:37:05.842Z,9.48
2023-03-17T12:38:05.809Z,9.40
2023-03-17T12:39:05.786Z,9.17
2023-03-17T12:40:05.764Z,9.24
2023-03-17T12:41:05.723Z,9.41
2023-03-17T12:42:05.700Z,8.80
2023-03-17T12:43:05.663Z,8.93
2023-03-17T12:44:05.638Z,9.08
2023-03-17T12:45:05.702Z,8.59
2023-03-17T12:46:05.624Z,8.93
2023-03-17T12:47:05.579Z,8.58
2023-03-17T12:48:05.538Z,8.59
2023-03-17T12:49:05.484Z,8.92
2023-03-17T12:50:05.459Z,8.66
2023-03-17T12:51:05.457Z,8.65
2023-03-17T12:52:05.404Z,8.55
2023-03-17T12:53:05.379Z,8.36
2023-03-17T12:54:05.371Z,8.49
2023-03-17T12:55:05.344Z,8.29
2023-03-17T12:56:05.296Z,7.87
2023-03-17T12:57:05.398Z,8.55
2023-03-17T12:58:05.264Z,7.99
2023-03-17T12:59:05.291Z,8.36
2023-03-17T13:00:05.207Z,7.94
2023-03-17T13:01:05.182Z,7.86
2023-03-17T13:02:05.276Z,8.11
2023-03-17T13:03:05.163Z,8.07
2023-03-17T13:04:05.095Z,8.01
2023-03-17T13:05:05.057Z,7.62
2023-03-17T13:06:05.036Z,7.75
2023-03-17T13:07:05.000Z,7.69
2023-03-17T13:08:04.979Z,7.80
2023-03-17T13:09:04.948Z,7.94
2023-03-17T13:10:04.919Z,7.74
2023-03-17T13:11:04.948Z,7.77
2023-03-17T13:12:04.878Z,7.49
2023-03-17T13:13:04.852Z,7.67
2023-03-17T13:14:04.822Z,7.51
2023-03-17T13:15:04.780Z,7.41
2023-03-17T13:16:04.793Z,7.46
2023-03-17T13:17:04.719Z,7.45
2023-03-17T13:18:04.688Z,7.39
2023-03-17T13:19:04.670Z,7.29
2023-03-17T13:20:04.644Z,7.30
2023-03-17T13:21:05.070Z,7.08
2023-03-17T13:22:04.581Z,7.49
2023-03-17T13:23:04.553Z,7.21
2023-03-17T13:24:04.539Z,7.28
2023-03-17T13:25:04.500Z,7.39
2023-03-17T13:26:04.495Z,7.34
2023-03-17T13:27:05.071Z,7.27
2023-03-17T13:28:04.433Z,7.03
2023-03-17T13:29:04.454Z,6.90
2023-03-17T13:30:04.371Z,7.22
2023-03-17T13:31:04.407Z,7.16
2023-03-17T13:32:04.333Z,6.99
2023-03-17T13:33:04.396Z,6.87
2023-03-17T13:34:04.259Z,6.89
2023-03-17T13:35:04.241Z,6.88
2023-03-17T13:36:04.239Z,6.76
2023-03-17T13:37:04.194Z,6.80
2023-03-17T13:38:04.155Z,6.90
2023-03-17T13:39:18.438Z,6.59
2023-03-17T13:40:05.074Z,6.60
2023-03-17T13:41:04.049Z,6.65
2023-03-17T13:42:15.562Z,6.62
2023-03-17T13:43:04.954Z,6.60
2023-03-17T13:44:03.927Z,6.63
2023-03-17T13:45:03.880Z,6.33
2023-03-17T13:46:03.841Z,6.67
2023-03-17T13:47:03.822Z,6.17
2023-03-17T13:48:03.767Z,6.56
2023-03-17T13:49:03.738Z,6.47
2023-03-17T13:50:03.708Z,6.72
2023-03-17T13:51:03.678Z,6.44
2023-03-17T13:52:03.638Z,6.48
2023-03-17T13:53:03.604Z,6.46
2023-03-17T13:54:03.642Z,6.35
2023-03-17T13:55:03.522Z,6.03
2023-03-17T13:56:03.553Z,6.21
2023-03-17T13:57:03.454Z,6.09
2023-03-17T13:58:03.441Z,6.16
2023-03-17T13:59:03.401Z,6.07
2023-03-17T14:00:03.588Z,5.76
2023-03-17T14:01:03.372Z,5.87
2023-03-17T14:02:03.289Z,6.18
2023-03-17T14:03:03.253Z,5.96
2023-03-17T14:04:03.336Z,5.71
2023-03-17T14:05:03.189Z,5.73
2023-03-17T14:58:01.648Z,4.62
2023-03-17T14:59:01.645Z,4.61
2023-03-17T15:00:01.624Z,4.63
2023-03-17T15:01:01.630Z,4.81
2023-03-17T15:02:01.633Z,4.89
2023-03-17T15:03:01.598Z,4.60
2023-03-17T15:04:01.588Z,4.60
2023-03-17T15:05:01.593Z,4.62
2023-03-17T15:06:01.570Z,4.68
2023-03-17T15:07:01.570Z,4.42
2023-03-17T15:08:01.547Z,4.64
2023-03-17T15:09:01.537Z,4.53
2023-03-17T15:10:01.516Z,4.27
2023-03-17T15:11:01.500Z,4.41
2023-03-17T15:12:01.512Z,4.60
2023-03-17T15:13:01.507Z,4.56
2023-03-17T15:14:01.497Z,4.55
2023-03-17T15:15:01.487Z,4.40
2023-03-17T15:16:01.497Z,4.43
2023-03-17T15:17:01.540Z,4.46
2023-03-17T15:18:01.545Z,4.53
2023-03-17T15:19:01.492Z,4.50
2023-03-17T15:20:01.484Z,4.37
2023-03-17T15:21:01.510Z,4.38
2023-03-17T15:22:01.491Z,4.43
2023-03-17T15:23:01.498Z,4.48
2023-03-17T15:24:01.509Z,4.33
2023-03-17T15:25:01.506Z,4.41
2023-03-17T15:26:01.509Z,4.33
2023-03-17T15:27:01.506Z,4.22
2023-03-17T15:28:01.528Z,4.04
2023-03-17T15:29:01.618Z,4.36
2023-03-17T15:30:01.526Z,4.29
2023-03-17T15:31:01.545Z,4.20
2023-03-17T15:32:01.539Z,4.36
2023-03-17T15:33:01.593Z,4.22
2023-03-17T15:34:01.557Z,4.15
2023-03-17T15:35:01.566Z,4.21
2023-03-17T15:36:01.623Z,4.17
2023-03-17T15:37:01.587Z,4.17
2023-03-17T15:38:01.596Z,4.18
2023-03-17T15:39:01.714Z,4.22
2023-03-17T15:40:01.658Z,4.16
2023-03-17T15:41:01.631Z,3.97
2023-03-17T15:42:01.669Z,4.01
2023-03-17T15:43:01.687Z,4.02
2023-03-17T15:44:03.477Z,4.18
2023-03-17T15:45:01.707Z,4.08
2023-03-17T15:46:01.813Z,4.11
2023-03-17T15:47:01.733Z,4.11
2023-03-17T15:48:01.749Z,4.06
2023-03-17T15:49:01.781Z,4.13
2023-03-17T15:50:01.800Z,4.11
2023-03-17T15:51:01.809Z,3.96
2023-03-17T15:52:01.822Z,3.95
2023-03-17T15:53:01.846Z,4.09
2023-03-17T15:54:02.134Z,4.06
2023-03-17T15:55:01.883Z,4.11
2023-03-17T15:56:02.130Z,3.96
2023-03-17T15:57:01.926Z,3.95
2023-03-17T15:58:01.960Z,3.98
2023-03-17T15:59:01.967Z,4.02
2023-03-17T16:00:02.037Z,3.98
2023-03-17T16:01:02.105Z,3.99
2023-03-17T16:02:02.119Z,3.95
2023-03-17T16:03:02.084Z,3.89
2023-03-17T16:04:02.162Z,3.86
2023-03-17T16:05:02.148Z,3.96
2023-03-17T16:06:02.170Z,3.90
2023-03-17T16:07:02.221Z,3.88
2023-03-17T16:08:02.233Z,3.89
2023-03-17T16:09:02.280Z,3.82
2023-03-17T16:10:02.338Z,3.83
2023-03-17T16:11:02.318Z,3.84
2023-03-17T16:12:02.352Z,3.86
2023-03-17T16:13:02.409Z,3.81
2023-03-17T16:14:02.431Z,3.84
2023-03-17T16:15:10.309Z,3.77
2023-03-17T16:16:03.468Z,3.77
2023-03-17T16:17:02.416Z,3.78
2023-03-17T16:18:02.397Z,3.79
2023-03-17T16:19:02.370Z,3.75
2023-03-17T16:20:02.337Z,3.79
2023-03-17T16:21:02.308Z,3.82
2023-03-17T16:22:02.280Z,3.79
2023-03-17T16:23:02.259Z,3.75
2023-03-17T16:24:02.249Z,3.72
2023-03-17T16:25:02.287Z,3.76
2023-03-17T16:26:14.245Z,3.71
2023-03-17T16:27:03.313Z,3.72
2023-03-17T16:28:02.257Z,3.72
2023-03-17T16:29:02.231Z,3.72
2023-03-17T16:30:02.344Z,3.70
2023-03-17T16:31:02.208Z,3.69
2023-03-17T16:32:02.150Z,3.68
2023-03-17T16:33:02.181Z,3.63
2023-03-17T16:34:02.091Z,3.66
2023-03-17T16:35:02.099Z,3.63
2023-03-17T16:36:02.205Z,3.65
2023-03-17T16:37:02.638Z,3.59
2023-03-17T16:38:02.126Z,3.60
2023-03-17T16:39:03.133Z,3.56
2023-03-17T16:40:02.260Z,3.55
2023-03-17T16:41:02.219Z,3.51
2023-03-17T16:42:02.238Z,3.56
2023-03-17T16:43:02.253Z,3.49
2023-03-17T16:44:02.297Z,3.50
2023-03-17T16:45:02.336Z,3.48
2023-03-17T16:46:02.337Z,3.46
2023-03-17T16:47:02.369Z,3.52
2023-03-17T16:48:02.333Z,3.50
2023-03-17T16:49:02.374Z,3.45
2023-03-17T16:50:02.552Z,3.45
2023-03-17T16:51:02.467Z,3.46
2023-03-17T16:52:02.497Z,3.45
2023-03-17T16:53:02.525Z,3.42
2023-03-17T16:54:02.597Z,3.45
2023-03-17T16:55:02.585Z,3.43
2023-03-17T16:56:02.647Z,3.40
2023-03-17T16:57:02.675Z,3.39
2023-03-17T16:58:02.693Z,3.38
2023-03-17T16:59:02.724Z,3.42
2023-03-17T17:00:02.719Z,3.35
2023-03-17T17:01:02.770Z,3.33
2023-03-17T17:02:02.898Z,3.31
2023-03-17T17:03:02.876Z,3.32
2023-03-17T17:04:02.851Z,3.28
2023-03-17T17:05:02.907Z,3.27
2023-03-17T17:06:02.894Z,3.31
2023-03-17T17:07:03.035Z,3.29
2023-03-17T17:08:02.915Z,3.26
2023-03-17T17:09:02.931Z,3.18
2023-03-17T17:10:02.981Z,3.23
2023-03-17T17:11:02.991Z,3.24
2023-03-17T17:12:03.647Z,3.20
2023-03-17T17:13:03.079Z,3.17
2023-03-17T17:14:03.072Z,3.18
2023-03-17T17:15:03.037Z,3.18
2023-03-17T17:16:03.043Z,3.15
2023-03-17T17:17:03.009Z,3.16
2023-03-17T17:18:03.011Z,3.14
2023-03-17T17:19:03.086Z,3.11
2023-03-17T17:20:03.172Z,3.14
2023-03-17T17:21:03.232Z,3.11
2023-03-17T17:22:03.306Z,3.12
2023-03-17T17:23:03.379Z,3.10
2023-03-17T17:24:03.452Z,3.07
2023-03-17T17:25:03.537Z,3.06
2023-03-17T17:26:03.610Z,3.10
2023-03-17T17:27:03.537Z,3.05
2023-03-17T17:28:03.516Z,3.04
2023-03-17T17:29:03.518Z,2.98
2023-03-17T17:30:03.511Z,3.03
2023-03-17T17:31:03.626Z,2.94
2023-03-17T17:32:03.663Z,2.95
2023-03-17T17:33:03.769Z,2.90
2023-03-17T17:34:03.838Z,2.94
2023-03-17T17:35:03.918Z,2.96
2023-03-17T17:36:04.078Z,2.93
2023-03-17T17:37:04.068Z,2.93
2023-03-17T19:04:04.292Z,2.18
2023-03-17T19:05:04.290Z,2.18
2023-03-17T19:06:04.260Z,2.17
2023-03-17T22:58:05.866Z,1.17
2023-03-17T23:03:05.949Z,1.15
2023-03-17T23:04:05.977Z,1.16
2023-03-17T23:05:05.991Z,1.14
2023-03-17T23:13:06.110Z,1.15
2023-03-17T23:22:06.421Z,1.11
2023-03-17T23:23:06.401Z,1.10
2023-03-17T23:24:06.383Z,1.11
2023-03-17T23:25:06.433Z,1.11
2023-03-17T23:26:06.502Z,1.12
2023-03-17T23:27:06.512Z,1.11
2023-03-17T23:28:06.481Z,1.09
2023-03-17T23:29:06.459Z,1.11
2023-03-17T23:39:06.385Z,1.10
2023-03-17T23:40:06.466Z,1.10
2023-03-17T23:41:06.365Z,1.07
2023-03-17T23:42:06.345Z,1.09
2023-03-17T23:43:06.345Z,1.07
2023-03-17T23:44:06.310Z,1.09
2023-03-17T23:45:06.298Z,1.08
2023-03-17T23:47:06.436Z,1.08
2023-03-17T23:48:06.758Z,1.08
2023-03-17T23:49:06.762Z,1.05
2023-03-17T23:50:06.567Z,1.07
